Decoded Metar for KBKL (CLEVELAND in OH, USA) (IATA:BKL) | Meteo·Mobile Aviation Weather
aviador You're here:

KBKL Decoded Metar

CLEVELAND in OH, USA
Report Time2018-08-21 19:53:00
UTC Time2018-08-21 19:56:22
Flight Rules vfr VFR
Wind230° at 10 Gusting to 17 kt
W.Decomp.*RWY 24: 10.0 kt HW 0.5 kt LCW
W.Rank230° ranks 4
Current wind is below 230° avg. (11.1)
Visibility9656 m
Phenomena:Light Rain
Clouds:Broken 050 Hf
Expected CloudBase > 1,200 ft AGL from Temp-Dew spread
Ceiling5,000 ft
Temp24°C (ISA +10)
Dew Point21°C (83% RH)
QNH1007 hPa
Density Alt2,320 ft
Elevation604 ft
Report Wrong Elevation
Raw Report
METAR KBKL 211953Z 23010G17KT 6SM -RA BKN050 24/21 A2973 RMK AO2 PK
WND 24034/1910 LTG DSNT W RAE30B53 SLP064 P0003 T02440211 $=

Extra information for KBKL:More info

Metar Taf Metar & Taf Last 4 Metars F.Rules Stats Wind Profile Meteogram Temp Stats Airport Information Weather charts Add Link Nearby VenuesMetar ALERT Operation Metar Decoded Social comments

AIRNAV info for KBKL